Time;durP1;ratioP1;P1;durP2;ratioP2;P2;SDS_P1;SDS_P2;PMS_P1;PMS_P2;Temp;Humidity;BMP_temperature;BMP_pressure;BME280_temperature;BME280_humidity;BME280_pressure;Samples;Min_cycle;Max_cycle;Signal;HPM_P1;HPM_P2
2023/12/11 00:09:00;;;;;;;;;;;10.20;99.90;;;;;;6708138;88;20528;-77
2023/12/11 00:19:01;;;;;;;;;;;10.30;99.90;;;;;;6715717;88;20518;-77
2023/12/11 00:29:02;;;;;;;;;;;10.40;99.90;;;;;;6715290;88;20101;-77
2023/12/11 00:39:03;;;;;;;;;;;10.50;99.90;;;;;;6708016;88;20136;-77
2023/12/11 00:49:04;;;;;;;;;;;10.60;99.90;;;;;;6709351;88;20186;-79
2023/12/11 00:59:04;;;;;;;;;;;10.70;99.90;;;;;;6713305;88;20190;-78
2023/12/11 01:09:04;;;;;;;;;;;10.70;99.90;;;;;;6718673;88;20169;-79
2023/12/11 01:19:05;;;;;;;;;;;10.70;99.90;;;;;;6705828;88;20081;-78
2023/12/11 01:29:05;;;;;;;;;;;10.70;99.90;;;;;;6711945;88;20127;-78
2023/12/11 01:39:06;;;;;;;;;;;10.60;99.90;;;;;;6708552;88;20095;-78
2023/12/11 01:49:07;;;;;;;;;;;10.40;99.90;;;;;;6710046;88;20078;-77
2023/12/11 01:59:07;;;;;;;;;;;10.40;99.90;;;;;;6707104;88;20051;-77
2023/12/11 02:09:08;;;;;;;;;;;10.60;99.90;;;;;;6708010;88;21011;-77
2023/12/11 02:19:08;;;;;;;;;;;10.60;99.90;;;;;;6706674;88;20111;-78
2023/12/11 02:29:09;;;;;;;;;;;10.60;99.90;;;;;;6706900;88;20487;-78
2023/12/11 02:39:09;;;;;;;;;;;10.60;99.90;;;;;;6706253;88;20181;-77
2023/12/11 02:49:10;;;;;;;;;;;10.50;99.90;;;;;;6703885;88;20745;-77
2023/12/11 02:59:10;;;;;;;;;;;10.40;99.90;;;;;;6705709;88;20082;-77
2023/12/11 03:09:11;;;;;;;;;;;10.50;99.90;;;;;;6711032;88;20115;-79
2023/12/11 03:19:11;;;;;;;;;;;10.40;99.90;;;;;;6708602;88;20103;-78
2023/12/11 03:29:12;;;;;;;;;;;10.40;99.90;;;;;;6708215;88;20085;-78
2023/12/11 03:39:12;;;;;;;;;;;10.40;99.90;;;;;;6710868;88;20055;-76
2023/12/11 03:49:17;;;;;;;;;;;10.40;99.90;;;;;;6719883;88;20110;-77
2023/12/11 03:59:17;;;;;;;;;;;10.60;99.90;;;;;;6708173;88;20040;-78
2023/12/11 04:09:18;;;;;;;;;;;10.70;99.90;;;;;;6710715;88;20067;-78
2023/12/11 04:19:18;;;;;;;;;;;10.60;99.90;;;;;;6708545;88;20166;-78
2023/12/11 04:29:18;;;;;;;;;;;10.80;99.90;;;;;;6710541;88;20100;-77
2023/12/11 04:39:19;;;;;;;;;;;10.80;99.90;;;;;;6706382;88;20063;-77
2023/12/11 04:49:19;;;;;;;;;;;10.60;99.90;;;;;;6711808;88;20518;-78
2023/12/11 04:59:20;;;;;;;;;;;10.60;99.90;;;;;;6708979;88;20063;-78
2023/12/11 05:09:20;;;;;;;;;;;10.60;99.90;;;;;;6715036;88;20083;-77
2023/12/11 05:19:21;;;;;;;;;;;10.60;99.90;;;;;;6716093;88;20100;-76
2023/12/11 05:29:22;;;;;;;;;;;10.70;99.90;;;;;;6707184;88;20087;-77
2023/12/11 05:39:22;;;;;;;;;;;10.50;99.90;;;;;;6706810;88;20085;-77
2023/12/11 05:49:23;;;;;;;;;;;10.60;99.90;;;;;;6704331;88;20552;-77
2023/12/11 05:59:23;;;;;;;;;;;10.70;99.90;;;;;;6706937;88;20221;-77
2023/12/11 06:09:24;;;;;;;;;;;10.80;99.90;;;;;;6709393;88;20077;-77
2023/12/11 06:19:24;;;;;;;;;;;11.00;99.90;;;;;;6709386;88;20079;-77
2023/12/11 06:29:24;;;;;;;;;;;11.10;99.90;;;;;;6709655;88;20075;-78
2023/12/11 06:39:26;;;;;;;;;;;11.10;99.90;;;;;;6706534;88;20052;-78
2023/12/11 06:49:27;;;;;;;;;;;10.60;99.90;;;;;;6710269;88;20055;-77
2023/12/11 06:59:28;;;;;;;;;;;10.20;99.90;;;;;;6709155;88;20134;-77
2023/12/11 07:09:29;;;;;;;;;;;10.20;99.90;;;;;;6704109;88;20063;-78
2023/12/11 07:19:30;;;;;;;;;;;10.30;99.90;;;;;;6708964;88;20110;-78
2023/12/11 07:29:30;;;;;;;;;;;10.40;99.90;;;;;;6705234;88;20085;-78
2023/12/11 07:39:30;;;;;;;;;;;10.30;99.90;;;;;;6709446;88;20243;-78
2023/12/11 07:49:31;;;;;;;;;;;10.20;99.90;;;;;;6713068;88;20113;-78
2023/12/11 07:59:32;;;;;;;;;;;10.20;99.90;;;;;;6712934;88;20516;-78
2023/12/11 08:09:39;;;;;;;;;;;10.30;99.90;;;;;;6717432;88;20083;-78
2023/12/11 08:19:39;;;;;;;;;;;10.50;99.90;;;;;;6714053;88;20060;-76
2023/12/11 08:29:40;;;;;;;;;;;10.60;99.90;;;;;;6714046;88;20519;-76
2023/12/11 08:39:40;;;;;;;;;;;10.80;99.90;;;;;;6713994;88;20071;-78
2023/12/11 08:49:41;;;;;;;;;;;10.90;99.90;;;;;;6716380;88;20101;-78
2023/12/11 08:59:41;;;;;;;;;;;11.10;99.90;;;;;;6710833;88;20179;-78
2023/12/11 09:09:42;;;;;;;;;;;11.10;99.90;;;;;;6718373;88;20953;-78
2023/12/11 09:19:42;;;;;;;;;;;11.30;99.90;;;;;;6716359;88;20159;-78
2023/12/11 09:29:42;;;;;;;;;;;11.30;99.90;;;;;;6714899;88;20233;-79
2023/12/11 09:39:43;;;;;;;;;;;11.30;99.90;;;;;;6714104;88;20130;-78
2023/12/11 09:49:46;;;;;;;;;;;11.50;99.90;;;;;;6712433;88;20081;-78
2023/12/11 09:59:50;;;;;;;;;;;11.60;99.90;;;;;;6716205;88;20597;-78
2023/12/11 10:09:50;;;;;;;;;;;11.50;99.90;;;;;;6720897;88;20589;-78
2023/12/11 10:30:14;;;;;;;;;;;11.40;99.90;;;;;;6749562;88;20602;-81
2023/12/11 10:40:14;;;;;;;;;;;11.40;99.90;;;;;;6729345;88;20100;-81
2023/12/11 10:50:15;;;;;;;;;;;11.40;99.90;;;;;;6729195;88;20074;-81
2023/12/11 11:00:16;;;;;;;;;;;11.40;99.90;;;;;;6683524;89;20069;-80
2023/12/11 11:10:19;;;;;;;;;;;11.40;99.90;;;;;;6746073;88;20063;-81
2023/12/11 11:20:20;;;;;;;;;;;11.50;99.90;;;;;;6747940;88;20516;-82
2023/12/11 11:30:57;;;;;;;;;;;11.60;99.90;;;;;;6747875;88;20037;-82
2023/12/11 11:40:57;;;;;;;;;;;11.60;99.90;;;;;;6710945;88;20079;-80
2023/12/11 11:50:57;;;;;;;;;;;11.60;99.90;;;;;;6726563;88;20061;-81
2023/12/11 12:01:04;;;;;;;;;;;11.60;99.90;;;;;;6728992;88;20513;-80
2023/12/11 12:11:05;;;;;;;;;;;11.60;99.90;;;;;;6729276;88;20080;-81
2023/12/11 12:21:05;;;;;;;;;;;11.80;99.90;;;;;;6725455;88;20119;-81
2023/12/11 12:31:06;;;;;;;;;;;11.90;99.90;;;;;;6728331;88;20067;-79
2023/12/11 12:41:10;;;;;;;;;;;12.40;99.90;;;;;;6732659;88;20083;-81
2023/12/11 12:51:11;;;;;;;;;;;12.30;99.90;;;;;;6727786;88;20173;-80
2023/12/11 13:01:11;;;;;;;;;;;12.20;99.90;;;;;;6727556;88;20097;-80
2023/12/11 13:11:12;;;;;;;;;;;12.10;99.90;;;;;;6726534;88;20066;-79
2023/12/11 13:21:12;;;;;;;;;;;11.90;99.90;;;;;;6727641;88;20058;-81
2023/12/11 13:31:13;;;;;;;;;;;11.90;99.90;;;;;;6727883;88;20185;-79
2023/12/11 13:41:13;;;;;;;;;;;11.80;99.90;;;;;;6728702;88;20173;-81
2023/12/11 13:51:14;;;;;;;;;;;11.80;99.90;;;;;;6725425;88;20223;-80
2023/12/11 14:01:14;;;;;;;;;;;11.70;99.90;;;;;;6731271;88;20623;-79
2023/12/11 14:11:15;;;;;;;;;;;11.40;99.90;;;;;;6747550;88;20103;-80
2023/12/11 14:21:17;;;;;;;;;;;11.00;99.90;;;;;;6737654;88;20106;-79
2023/12/11 14:31:17;;;;;;;;;;;9.80;99.90;;;;;;6733183;88;20070;-78
2023/12/11 14:41:18;;;;;;;;;;;9.30;99.90;;;;;;6728719;88;20147;-79
2023/12/11 14:51:18;;;;;;;;;;;8.90;99.90;;;;;;6727786;88;20086;-79
2023/12/11 15:01:19;;;;;;;;;;;8.80;99.90;;;;;;6732790;88;20062;-81
2023/12/11 15:11:21;;;;;;;;;;;8.70;99.90;;;;;;6728718;88;20434;-80
2023/12/11 15:21:22;;;;;;;;;;;8.80;99.90;;;;;;6734421;88;20062;-80
2023/12/11 15:31:23;;;;;;;;;;;8.60;99.90;;;;;;6726475;88;20057;-81
2023/12/11 15:41:24;;;;;;;;;;;8.70;99.90;;;;;;6730754;88;20510;-81
2023/12/11 15:51:25;;;;;;;;;;;8.60;99.90;;;;;;6730598;88;20138;-80
2023/12/11 16:01:25;;;;;;;;;;;8.60;99.90;;;;;;6731489;88;20059;-80
2023/12/11 16:11:26;;;;;;;;;;;8.60;99.90;;;;;;6733977;88;20148;-81
2023/12/11 16:31:30;;;;;;;;;;;8.50;99.90;;;;;;6738944;88;20082;-78
2023/12/11 16:41:30;;;;;;;;;;;8.50;99.90;;;;;;6736961;88;20108;-78
2023/12/11 16:51:31;;;;;;;;;;;8.50;99.90;;;;;;6741933;88;20077;-78
2023/12/11 17:01:31;;;;;;;;;;;8.60;99.90;;;;;;6738006;88;20098;-78
2023/12/11 17:11:33;;;;;;;;;;;8.80;99.90;;;;;;6746087;88;20093;-78
2023/12/11 17:21:33;;;;;;;;;;;9.10;99.90;;;;;;6739729;88;20076;-78
2023/12/11 17:31:34;;;;;;;;;;;9.00;99.90;;;;;;6733354;88;20075;-78
2023/12/11 17:41:34;;;;;;;;;;;8.90;99.90;;;;;;6736352;88;20054;-78
2023/12/11 17:51:35;;;;;;;;;;;9.00;99.90;;;;;;6741793;88;20698;-78
2023/12/11 18:01:38;;;;;;;;;;;9.10;99.90;;;;;;6737137;88;20062;-78
2023/12/11 18:11:38;;;;;;;;;;;8.90;99.90;;;;;;6736189;88;20158;-78
2023/12/11 18:21:39;;;;;;;;;;;8.90;99.90;;;;;;6750749;88;20240;-78
2023/12/11 18:31:43;;;;;;;;;;;9.30;99.90;;;;;;6741604;88;20105;-78
2023/12/11 18:41:43;;;;;;;;;;;9.30;99.90;;;;;;6745499;88;20039;-79
2023/12/11 18:51:44;;;;;;;;;;;9.20;99.90;;;;;;6752851;88;20038;-79
2023/12/11 19:01:44;;;;;;;;;;;9.20;99.90;;;;;;6744596;88;20099;-79
2023/12/11 19:11:45;;;;;;;;;;;9.10;99.90;;;;;;6747377;88;20174;-81
2023/12/11 19:21:46;;;;;;;;;;;9.10;99.90;;;;;;6741348;88;20068;-78
2023/12/11 19:31:47;;;;;;;;;;;9.10;99.90;;;;;;6750612;88;20058;-79
2023/12/11 19:41:47;;;;;;;;;;;9.10;99.90;;;;;;6733773;88;20086;-80
2023/12/11 19:51:48;;;;;;;;;;;8.90;99.90;;;;;;6737405;88;20055;-79
2023/12/11 20:01:49;;;;;;;;;;;8.70;99.90;;;;;;6740968;88;20063;-79
2023/12/11 20:11:50;;;;;;;;;;;8.60;99.90;;;;;;6743516;88;20148;-79
2023/12/11 20:21:50;;;;;;;;;;;8.60;99.90;;;;;;6749358;88;20196;-79
2023/12/11 20:31:51;;;;;;;;;;;8.60;99.90;;;;;;6748680;88;20128;-80
2023/12/11 20:41:52;;;;;;;;;;;8.60;99.90;;;;;;6747960;88;20523;-79
2023/12/11 20:51:52;;;;;;;;;;;8.90;99.90;;;;;;6745407;88;20053;-78
2023/12/11 21:01:53;;;;;;;;;;;8.90;99.90;;;;;;6749711;88;20062;-79
2023/12/11 21:11:53;;;;;;;;;;;9.00;99.90;;;;;;6751971;88;20066;-78
2023/12/11 21:21:54;;;;;;;;;;;9.10;99.90;;;;;;6747704;88;20067;-79
2023/12/11 21:31:57;;;;;;;;;;;9.20;99.90;;;;;;6750205;88;20107;-79
2023/12/11 21:42:06;;;;;;;;;;;8.80;99.90;;;;;;6745095;88;20084;-79
2023/12/11 21:52:30;;;;;;;;;;;9.10;99.90;;;;;;6746916;88;20049;-79
2023/12/11 22:02:30;;;;;;;;;;;9.20;99.90;;;;;;6757868;88;20640;-82
2023/12/11 22:12:39;;;;;;;;;;;9.30;99.90;;;;;;6752701;88;20069;-79
2023/12/11 22:22:40;;;;;;;;;;;9.20;99.90;;;;;;6737787;77;20202;-78
2023/12/11 22:32:40;;;;;;;;;;;9.20;99.90;;;;;;6707370;88;20071;-78
2023/12/11 22:42:41;;;;;;;;;;;9.10;99.90;;;;;;6708653;88;20141;-77
2023/12/11 22:52:41;;;;;;;;;;;9.20;99.90;;;;;;6706800;88;20105;-78
2023/12/11 23:02:42;;;;;;;;;;;9.20;99.90;;;;;;6710294;88;20183;-78
2023/12/11 23:12:43;;;;;;;;;;;9.30;99.90;;;;;;6703458;88;20537;-77
2023/12/11 23:22:43;;;;;;;;;;;9.30;99.90;;;;;;6703294;88;20079;-77
2023/12/11 23:32:44;;;;;;;;;;;9.30;99.90;;;;;;6705125;88;20493;-77
2023/12/11 23:42:44;;;;;;;;;;;9.30;99.90;;;;;;6711674;88;20102;-77
2023/12/11 23:52:47;;;;;;;;;;;9.40;99.90;;;;;;6713165;88;20565;-77
